sensor_id;sensor_type;location;lat;lon;timestamp;temperature;humidity
14682;DHT22;7429;52.498;13.480;2022-10-03T00:01:33;11.70;99.90
14682;DHT22;7429;52.498;13.480;2022-10-03T00:04:52;11.70;99.90
14682;DHT22;7429;52.498;13.480;2022-10-03T00:08:07;11.70;99.90
14682;DHT22;7429;52.498;13.480;2022-10-03T00:11:26;11.70;99.90
14682;DHT22;7429;52.498;13.480;2022-10-03T00:14:43;11.70;99.90
14682;DHT22;7429;52.498;13.480;2022-10-03T00:18:02;11.70;99.90
14682;DHT22;7429;52.498;13.480;2022-10-03T00:21:26;11.80;99.90
14682;DHT22;7429;52.498;13.480;2022-10-03T00:24:44;11.80;99.90
14682;DHT22;7429;52.498;13.480;2022-10-03T00:28:03;11.80;99.90
14682;DHT22;7429;52.498;13.480;2022-10-03T00:31:12;11.80;99.90
14682;DHT22;7429;52.498;13.480;2022-10-03T00:34:26;11.80;99.90
14682;DHT22;7429;52.498;13.480;2022-10-03T00:37:45;11.80;99.90
14682;DHT22;7429;52.498;13.480;2022-10-03T00:41:27;11.90;99.90
14682;DHT22;7429;52.498;13.480;2022-10-03T00:44:58;11.90;99.90
14682;DHT22;7429;52.498;13.480;2022-10-03T00:49:12;11.90;99.90
14682;DHT22;7429;52.498;13.480;2022-10-03T00:52:45;11.90;99.90
14682;DHT22;7429;52.498;13.480;2022-10-03T00:56:05;11.90;99.90
14682;DHT22;7429;52.498;13.480;2022-10-03T00:59:28;11.90;99.90
14682;DHT22;7429;52.498;13.480;2022-10-03T01:02:47;11.90;99.90
14682;DHT22;7429;52.498;13.480;2022-10-03T01:06:15;11.90;99.90
14682;DHT22;7429;52.498;13.480;2022-10-03T01:09:36;11.80;99.90
14682;DHT22;7429;52.498;13.480;2022-10-03T01:13:01;11.80;99.90
14682;DHT22;7429;52.498;13.480;2022-10-03T01:16:17;11.80;99.90
14682;DHT22;7429;52.498;13.480;2022-10-03T01:19:47;11.80;99.90
14682;DHT22;7429;52.498;13.480;2022-10-03T01:23:20;11.80;99.90
14682;DHT22;7429;52.498;13.480;2022-10-03T01:26:56;11.80;99.90
14682;DHT22;7429;52.498;13.480;2022-10-03T01:30:04;11.80;99.90
14682;DHT22;7429;52.498;13.480;2022-10-03T01:33:30;11.80;99.90
14682;DHT22;7429;52.498;13.480;2022-10-03T01:36:40;11.80;99.90
14682;DHT22;7429;52.498;13.480;2022-10-03T01:39:51;11.80;99.90
14682;DHT22;7429;52.498;13.480;2022-10-03T01:43:05;11.80;99.90
14682;DHT22;7429;52.498;13.480;2022-10-03T01:46:20;11.80;99.90
14682;DHT22;7429;52.498;13.480;2022-10-03T01:49:29;11.80;99.90
14682;DHT22;7429;52.498;13.480;2022-10-03T01:52:44;11.80;99.90
14682;DHT22;7429;52.498;13.480;2022-10-03T01:55:57;11.90;99.90
14682;DHT22;7429;52.498;13.480;2022-10-03T01:59:07;11.80;99.90
14682;DHT22;7429;52.498;13.480;2022-10-03T02:02:27;11.80;99.90
14682;DHT22;7429;52.498;13.480;2022-10-03T02:05:38;11.80;99.90
14682;DHT22;7429;52.498;13.480;2022-10-03T02:08:51;11.70;99.90
14682;DHT22;7429;52.498;13.480;2022-10-03T02:12:07;11.70;99.90
14682;DHT22;7429;52.498;13.480;2022-10-03T02:15:16;11.70;99.90
14682;DHT22;7429;52.498;13.480;2022-10-03T02:18:28;11.70;99.90
14682;DHT22;7429;52.498;13.480;2022-10-03T02:21:46;11.80;99.90
14682;DHT22;7429;52.498;13.480;2022-10-03T02:24:58;11.80;99.90
14682;DHT22;7429;52.498;13.480;2022-10-03T02:28:32;11.90;99.90
14682;DHT22;7429;52.498;13.480;2022-10-03T02:32:09;11.90;99.90
14682;DHT22;7429;52.498;13.480;2022-10-03T02:39:45;11.90;99.90
14682;DHT22;7429;52.498;13.480;2022-10-03T02:47:26;12.00;99.90
14682;DHT22;7429;52.498;13.480;2022-10-03T02:50:55;12.00;99.90
14682;DHT22;7429;52.498;13.480;2022-10-03T02:58:27;12.00;99.90
14682;DHT22;7429;52.498;13.480;2022-10-03T03:02:16;12.00;99.90
14682;DHT22;7429;52.498;13.480;2022-10-03T03:06:09;12.00;99.90
14682;DHT22;7429;52.498;13.480;2022-10-03T03:09:56;12.00;99.90
14682;DHT22;7429;52.498;13.480;2022-10-03T03:13:35;12.00;99.90
14682;DHT22;7429;52.498;13.480;2022-10-03T03:17:13;12.00;99.90
14682;DHT22;7429;52.498;13.480;2022-10-03T03:20:35;12.00;99.90
14682;DHT22;7429;52.498;13.480;2022-10-03T03:24:02;12.00;99.90
14682;DHT22;7429;52.498;13.480;2022-10-03T03:27:29;12.10;99.90
14682;DHT22;7429;52.498;13.480;2022-10-03T03:30:46;12.10;99.90
14682;DHT22;7429;52.498;13.480;2022-10-03T03:33:59;12.00;99.90
14682;DHT22;7429;52.498;13.480;2022-10-03T03:37:10;12.00;99.90
14682;DHT22;7429;52.498;13.480;2022-10-03T03:40:39;12.10;99.90
14682;DHT22;7429;52.498;13.480;2022-10-03T03:44:18;12.00;99.90
14682;DHT22;7429;52.498;13.480;2022-10-03T03:47:46;12.00;99.90
14682;DHT22;7429;52.498;13.480;2022-10-03T03:51:14;12.00;99.90
14682;DHT22;7429;52.498;13.480;2022-10-03T03:54:53;12.00;99.90
14682;DHT22;7429;52.498;13.480;2022-10-03T03:58:24;12.00;99.90
14682;DHT22;7429;52.498;13.480;2022-10-03T04:01:57;11.90;99.90
14682;DHT22;7429;52.498;13.480;2022-10-03T04:05:18;12.00;99.90
14682;DHT22;7429;52.498;13.480;2022-10-03T04:08:52;12.00;99.90
14682;DHT22;7429;52.498;13.480;2022-10-03T04:12:16;11.90;99.90
14682;DHT22;7429;52.498;13.480;2022-10-03T04:15:39;11.90;99.90
14682;DHT22;7429;52.498;13.480;2022-10-03T04:18:58;11.90;99.90
14682;DHT22;7429;52.498;13.480;2022-10-03T04:22:16;11.90;99.90
14682;DHT22;7429;52.498;13.480;2022-10-03T04:25:59;11.90;99.90
14682;DHT22;7429;52.498;13.480;2022-10-03T04:29:39;11.90;99.90
14682;DHT22;7429;52.498;13.480;2022-10-03T04:32:57;11.90;99.90
14682;DHT22;7429;52.498;13.480;2022-10-03T04:36:28;11.90;99.90
14682;DHT22;7429;52.498;13.480;2022-10-03T04:39:45;11.90;99.90
14682;DHT22;7429;52.498;13.480;2022-10-03T04:43:02;11.90;99.90
14682;DHT22;7429;52.498;13.480;2022-10-03T04:46:22;11.90;99.90
14682;DHT22;7429;52.498;13.480;2022-10-03T04:49:32;11.90;99.90
14682;DHT22;7429;52.498;13.480;2022-10-03T04:52:43;11.90;99.90
14682;DHT22;7429;52.498;13.480;2022-10-03T04:55:55;11.90;99.90
14682;DHT22;7429;52.498;13.480;2022-10-03T04:59:20;11.90;99.90
14682;DHT22;7429;52.498;13.480;2022-10-03T05:02:40;11.90;99.90
14682;DHT22;7429;52.498;13.480;2022-10-03T05:05:51;11.90;99.90
14682;DHT22;7429;52.498;13.480;2022-10-03T05:09:01;11.90;99.90
14682;DHT22;7429;52.498;13.480;2022-10-03T05:12:17;11.90;99.90
14682;DHT22;7429;52.498;13.480;2022-10-03T05:15:26;11.90;99.90
14682;DHT22;7429;52.498;13.480;2022-10-03T05:18:39;11.90;99.90
14682;DHT22;7429;52.498;13.480;2022-10-03T05:21:47;11.90;99.90
14682;DHT22;7429;52.498;13.480;2022-10-03T05:24:59;11.90;99.90
14682;DHT22;7429;52.498;13.480;2022-10-03T05:28:13;11.90;99.90
14682;DHT22;7429;52.498;13.480;2022-10-03T05:31:30;11.90;99.90
14682;DHT22;7429;52.498;13.480;2022-10-03T05:34:51;11.90;99.90
14682;DHT22;7429;52.498;13.480;2022-10-03T05:38:16;11.90;99.90
14682;DHT22;7429;52.498;13.480;2022-10-03T05:41:32;11.90;99.90
14682;DHT22;7429;52.498;13.480;2022-10-03T05:44:41;11.90;99.90
14682;DHT22;7429;52.498;13.480;2022-10-03T05:47:49;11.90;99.90
14682;DHT22;7429;52.498;13.480;2022-10-03T05:51:19;11.90;99.90
14682;DHT22;7429;52.498;13.480;2022-10-03T05:54:52;11.90;99.90
14682;DHT22;7429;52.498;13.480;2022-10-03T05:58:37;11.90;99.90
14682;DHT22;7429;52.498;13.480;2022-10-03T06:05:30;11.90;99.90
14682;DHT22;7429;52.498;13.480;2022-10-03T06:08:47;11.90;99.90
14682;DHT22;7429;52.498;13.480;2022-10-03T06:12:04;11.90;99.90
14682;DHT22;7429;52.498;13.480;2022-10-03T06:15:31;11.90;99.90
14682;DHT22;7429;52.498;13.480;2022-10-03T06:19:13;11.80;99.90
14682;DHT22;7429;52.498;13.480;2022-10-03T06:22:57;11.80;99.90
14682;DHT22;7429;52.498;13.480;2022-10-03T06:30:07;11.90;99.90
14682;DHT22;7429;52.498;13.480;2022-10-03T06:33:51;11.90;99.90
14682;DHT22;7429;52.498;13.480;2022-10-03T06:37:23;11.90;99.90
14682;DHT22;7429;52.498;13.480;2022-10-03T06:52:45;12.00;99.90
14682;DHT22;7429;52.498;13.480;2022-10-03T07:00:10;12.10;99.90
14682;DHT22;7429;52.498;13.480;2022-10-03T07:03:45;12.10;99.90
14682;DHT22;7429;52.498;13.480;2022-10-03T07:07:16;12.20;99.90
14682;DHT22;7429;52.498;13.480;2022-10-03T07:10:58;12.20;99.90
14682;DHT22;7429;52.498;13.480;2022-10-03T07:14:40;12.20;99.90
14682;DHT22;7429;52.498;13.480;2022-10-03T07:18:17;12.20;99.90
14682;DHT22;7429;52.498;13.480;2022-10-03T07:29:55;12.30;99.90
14682;DHT22;7429;52.498;13.480;2022-10-03T07:33:34;12.40;99.90
14682;DHT22;7429;52.498;13.480;2022-10-03T07:41:12;12.50;99.90
14682;DHT22;7429;52.498;13.480;2022-10-03T07:48:50;12.60;99.90
14682;DHT22;7429;52.498;13.480;2022-10-03T07:52:30;12.70;99.90
14682;DHT22;7429;52.498;13.480;2022-10-03T07:55:54;12.80;99.90
14682;DHT22;7429;52.498;13.480;2022-10-03T08:07:00;12.80;99.90
14682;DHT22;7429;52.498;13.480;2022-10-03T08:10:26;12.80;99.90
14682;DHT22;7429;52.498;13.480;2022-10-03T08:13:59;12.80;99.90
14682;DHT22;7429;52.498;13.480;2022-10-03T08:17:42;12.90;99.90
14682;DHT22;7429;52.498;13.480;2022-10-03T08:21:07;12.90;99.90
14682;DHT22;7429;52.498;13.480;2022-10-03T08:24:27;12.90;99.90
14682;DHT22;7429;52.498;13.480;2022-10-03T08:31:56;13.00;99.90
14682;DHT22;7429;52.498;13.480;2022-10-03T08:35:39;13.10;99.90
14682;DHT22;7429;52.498;13.480;2022-10-03T08:39:13;13.20;99.90
14682;DHT22;7429;52.498;13.480;2022-10-03T08:54:11;13.30;99.90
14682;DHT22;7429;52.498;13.480;2022-10-03T09:01:21;13.30;99.90
14682;DHT22;7429;52.498;13.480;2022-10-03T09:04:53;13.30;99.90
14682;DHT22;7429;52.498;13.480;2022-10-03T09:08:35;13.50;99.90
14682;DHT22;7429;52.498;13.480;2022-10-03T09:12:02;13.60;99.90
14682;DHT22;7429;52.498;13.480;2022-10-03T09:20:06;13.90;99.90
14682;DHT22;7429;52.498;13.480;2022-10-03T09:23:50;13.90;99.90
14682;DHT22;7429;52.498;13.480;2022-10-03T09:27:15;14.00;99.90
14682;DHT22;7429;52.498;13.480;2022-10-03T09:30:45;14.00;99.90
14682;DHT22;7429;52.498;13.480;2022-10-03T09:34:13;14.00;99.90
14682;DHT22;7429;52.498;13.480;2022-10-03T09:37:51;14.10;99.90
14682;DHT22;7429;52.498;13.480;2022-10-03T09:41:31;14.20;99.90
14682;DHT22;7429;52.498;13.480;2022-10-03T09:45:00;14.30;99.90
14682;DHT22;7429;52.498;13.480;2022-10-03T09:48:30;14.60;99.90
14682;DHT22;7429;52.498;13.480;2022-10-03T09:51:48;14.90;99.90
14682;DHT22;7429;52.498;13.480;2022-10-03T09:55:18;14.90;99.90
14682;DHT22;7429;52.498;13.480;2022-10-03T09:58:47;14.80;99.90
14682;DHT22;7429;52.498;13.480;2022-10-03T10:10:04;15.10;99.90
14682;DHT22;7429;52.498;13.480;2022-10-03T10:13:46;14.90;99.90
14682;DHT22;7429;52.498;13.480;2022-10-03T10:21:36;14.90;99.90
14682;DHT22;7429;52.498;13.480;2022-10-03T10:37:15;15.60;99.90
14682;DHT22;7429;52.498;13.480;2022-10-03T10:45:41;15.80;99.90
14682;DHT22;7429;52.498;13.480;2022-10-03T10:49:36;16.20;99.90
14682;DHT22;7429;52.498;13.480;2022-10-03T11:00:44;15.90;99.90
14682;DHT22;7429;52.498;13.480;2022-10-03T11:04:17;16.10;99.90
14682;DHT22;7429;52.498;13.480;2022-10-03T11:23:45;15.90;99.90
14682;DHT22;7429;52.498;13.480;2022-10-03T11:31:39;15.90;99.90
14682;DHT22;7429;52.498;13.480;2022-10-03T11:38:33;16.00;99.90
14682;DHT22;7429;52.498;13.480;2022-10-03T11:41:43;15.90;99.90
14682;DHT22;7429;52.498;13.480;2022-10-03T11:44:55;15.90;99.90
14682;DHT22;7429;52.498;13.480;2022-10-03T11:48:16;15.90;99.90
14682;DHT22;7429;52.498;13.480;2022-10-03T11:51:39;15.80;99.90
14682;DHT22;7429;52.498;13.480;2022-10-03T11:54:46;15.70;99.90
14682;DHT22;7429;52.498;13.480;2022-10-03T11:57:59;15.60;99.90
14682;DHT22;7429;52.498;13.480;2022-10-03T12:01:24;15.80;99.90
14682;DHT22;7429;52.498;13.480;2022-10-03T12:04:47;15.80;99.90
14682;DHT22;7429;52.498;13.480;2022-10-03T12:08:05;15.80;99.90
14682;DHT22;7429;52.498;13.480;2022-10-03T12:11:37;15.80;99.90
14682;DHT22;7429;52.498;13.480;2022-10-03T12:14:47;15.80;99.90
14682;DHT22;7429;52.498;13.480;2022-10-03T12:18:00;15.70;99.90
14682;DHT22;7429;52.498;13.480;2022-10-03T12:21:10;15.80;99.90
14682;DHT22;7429;52.498;13.480;2022-10-03T12:24:24;15.70;99.90
14682;DHT22;7429;52.498;13.480;2022-10-03T12:27:35;15.60;99.90
14682;DHT22;7429;52.498;13.480;2022-10-03T12:30:46;15.70;99.90
14682;DHT22;7429;52.498;13.480;2022-10-03T12:33:53;16.30;99.90
14682;DHT22;7429;52.498;13.480;2022-10-03T12:37:18;16.60;99.90
14682;DHT22;7429;52.498;13.480;2022-10-03T12:40:29;16.70;99.90
14682;DHT22;7429;52.498;13.480;2022-10-03T12:43:45;16.60;99.90
14682;DHT22;7429;52.498;13.480;2022-10-03T12:47:05;16.60;99.90
14682;DHT22;7429;52.498;13.480;2022-10-03T12:50:27;16.70;99.90
14682;DHT22;7429;52.498;13.480;2022-10-03T12:53:48;17.00;99.90
14682;DHT22;7429;52.498;13.480;2022-10-03T12:57:10;17.20;99.90
14682;DHT22;7429;52.498;13.480;2022-10-03T13:00:33;16.90;99.90
14682;DHT22;7429;52.498;13.480;2022-10-03T13:03:43;16.90;99.90
14682;DHT22;7429;52.498;13.480;2022-10-03T13:07:03;17.10;99.90
14682;DHT22;7429;52.498;13.480;2022-10-03T13:10:23;17.50;99.90
14682;DHT22;7429;52.498;13.480;2022-10-03T13:13:38;17.70;99.90
14682;DHT22;7429;52.498;13.480;2022-10-03T13:17:00;17.60;99.90
14682;DHT22;7429;52.498;13.480;2022-10-03T13:20:14;17.80;99.90
14682;DHT22;7429;52.498;13.480;2022-10-03T13:23:23;18.10;99.90
14682;DHT22;7429;52.498;13.480;2022-10-03T13:26:45;18.30;99.90
14682;DHT22;7429;52.498;13.480;2022-10-03T13:30:02;18.00;99.90
14682;DHT22;7429;52.498;13.480;2022-10-03T13:33:13;18.20;99.90
14682;DHT22;7429;52.498;13.480;2022-10-03T13:36:23;18.30;99.90
14682;DHT22;7429;52.498;13.480;2022-10-03T13:39:39;18.10;99.90
14682;DHT22;7429;52.498;13.480;2022-10-03T13:42:49;18.00;99.90
14682;DHT22;7429;52.498;13.480;2022-10-03T13:45:54;17.60;99.90
14682;DHT22;7429;52.498;13.480;2022-10-03T13:49:00;17.30;99.90
14682;DHT22;7429;52.498;13.480;2022-10-03T13:52:17;17.20;99.90
14682;DHT22;7429;52.498;13.480;2022-10-03T13:55:41;17.00;99.90
14682;DHT22;7429;52.498;13.480;2022-10-03T13:58:54;16.80;99.90
14682;DHT22;7429;52.498;13.480;2022-10-03T14:02:09;16.80;99.90
14682;DHT22;7429;52.498;13.480;2022-10-03T14:05:35;17.20;99.90
14682;DHT22;7429;52.498;13.480;2022-10-03T14:09:02;17.00;99.90
14682;DHT22;7429;52.498;13.480;2022-10-03T14:12:24;16.90;99.90
14682;DHT22;7429;52.498;13.480;2022-10-03T14:15:57;17.30;99.90
14682;DHT22;7429;52.498;13.480;2022-10-03T14:19:10;17.80;99.90
14682;DHT22;7429;52.498;13.480;2022-10-03T14:22:34;17.90;99.90
14682;DHT22;7429;52.498;13.480;2022-10-03T14:25:49;18.00;99.90
14682;DHT22;7429;52.498;13.480;2022-10-03T14:28:59;17.90;99.90
14682;DHT22;7429;52.498;13.480;2022-10-03T14:32:14;18.00;99.90
14682;DHT22;7429;52.498;13.480;2022-10-03T14:35:52;18.00;99.90
14682;DHT22;7429;52.498;13.480;2022-10-03T14:39:09;17.80;99.90
14682;DHT22;7429;52.498;13.480;2022-10-03T14:42:39;17.40;99.90
14682;DHT22;7429;52.498;13.480;2022-10-03T14:45:50;17.10;99.90
14682;DHT22;7429;52.498;13.480;2022-10-03T14:48:59;17.20;99.90
14682;DHT22;7429;52.498;13.480;2022-10-03T14:52:06;17.20;99.90
14682;DHT22;7429;52.498;13.480;2022-10-03T14:55:16;17.00;99.90
14682;DHT22;7429;52.498;13.480;2022-10-03T14:58:22;16.90;99.90
14682;DHT22;7429;52.498;13.480;2022-10-03T15:01:29;16.80;99.90
14682;DHT22;7429;52.498;13.480;2022-10-03T15:04:35;16.80;99.90
14682;DHT22;7429;52.498;13.480;2022-10-03T15:07:44;16.70;99.90
14682;DHT22;7429;52.498;13.480;2022-10-03T15:10:49;16.60;99.90
14682;DHT22;7429;52.498;13.480;2022-10-03T15:13:57;16.60;99.90
14682;DHT22;7429;52.498;13.480;2022-10-03T15:17:05;16.60;99.90
14682;DHT22;7429;52.498;13.480;2022-10-03T15:20:23;16.50;99.90
14682;DHT22;7429;52.498;13.480;2022-10-03T15:23:31;16.50;99.90
14682;DHT22;7429;52.498;13.480;2022-10-03T15:26:36;16.50;99.90
14682;DHT22;7429;52.498;13.480;2022-10-03T15:29:40;16.50;99.90
14682;DHT22;7429;52.498;13.480;2022-10-03T15:32:46;16.40;99.90
14682;DHT22;7429;52.498;13.480;2022-10-03T15:35:54;16.30;99.90
14682;DHT22;7429;52.498;13.480;2022-10-03T15:39:02;16.30;99.90
14682;DHT22;7429;52.498;13.480;2022-10-03T15:42:19;16.20;99.90
14682;DHT22;7429;52.498;13.480;2022-10-03T15:45:27;16.10;99.90
14682;DHT22;7429;52.498;13.480;2022-10-03T15:48:33;16.10;99.90
14682;DHT22;7429;52.498;13.480;2022-10-03T15:51:38;16.00;99.90
14682;DHT22;7429;52.498;13.480;2022-10-03T15:54:45;16.00;99.90
14682;DHT22;7429;52.498;13.480;2022-10-03T15:57:52;16.00;99.90
14682;DHT22;7429;52.498;13.480;2022-10-03T16:01:04;15.90;99.90
14682;DHT22;7429;52.498;13.480;2022-10-03T16:04:16;15.90;99.90
14682;DHT22;7429;52.498;13.480;2022-10-03T16:07:27;15.80;99.90
14682;DHT22;7429;52.498;13.480;2022-10-03T16:10:41;15.80;99.90
14682;DHT22;7429;52.498;13.480;2022-10-03T16:14:02;15.80;99.90
14682;DHT22;7429;52.498;13.480;2022-10-03T16:17:15;15.80;99.90
14682;DHT22;7429;52.498;13.480;2022-10-03T16:20:24;15.80;99.90
14682;DHT22;7429;52.498;13.480;2022-10-03T16:23:33;15.80;99.90
14682;DHT22;7429;52.498;13.480;2022-10-03T16:26:47;15.80;99.90
14682;DHT22;7429;52.498;13.480;2022-10-03T16:30:09;15.70;99.90
14682;DHT22;7429;52.498;13.480;2022-10-03T16:33:22;15.70;99.90
14682;DHT22;7429;52.498;13.480;2022-10-03T16:36:31;15.60;99.90
14682;DHT22;7429;52.498;13.480;2022-10-03T16:39:51;15.60;99.90
14682;DHT22;7429;52.498;13.480;2022-10-03T16:42:58;15.50;99.90
14682;DHT22;7429;52.498;13.480;2022-10-03T16:46:16;15.50;99.90
14682;DHT22;7429;52.498;13.480;2022-10-03T16:49:33;15.50;99.90
14682;DHT22;7429;52.498;13.480;2022-10-03T16:52:56;15.50;99.90
14682;DHT22;7429;52.498;13.480;2022-10-03T16:56:05;15.50;99.90
14682;DHT22;7429;52.498;13.480;2022-10-03T16:59:11;15.50;99.90
14682;DHT22;7429;52.498;13.480;2022-10-03T17:02:20;15.40;99.90
14682;DHT22;7429;52.498;13.480;2022-10-03T17:05:26;15.40;99.90
14682;DHT22;7429;52.498;13.480;2022-10-03T17:08:31;15.40;99.90
14682;DHT22;7429;52.498;13.480;2022-10-03T17:11:46;15.30;99.90
14682;DHT22;7429;52.498;13.480;2022-10-03T17:14:55;15.30;99.90
14682;DHT22;7429;52.498;13.480;2022-10-03T17:18:14;15.20;99.90
14682;DHT22;7429;52.498;13.480;2022-10-03T17:21:28;15.20;99.90
14682;DHT22;7429;52.498;13.480;2022-10-03T17:24:41;15.10;99.90
14682;DHT22;7429;52.498;13.480;2022-10-03T17:27:48;15.10;99.90
14682;DHT22;7429;52.498;13.480;2022-10-03T17:30:55;15.10;99.90
14682;DHT22;7429;52.498;13.480;2022-10-03T17:34:10;15.00;99.90
14682;DHT22;7429;52.498;13.480;2022-10-03T17:37:27;15.00;99.90
14682;DHT22;7429;52.498;13.480;2022-10-03T17:40:55;14.90;99.90
14682;DHT22;7429;52.498;13.480;2022-10-03T17:44:18;14.90;99.90
14682;DHT22;7429;52.498;13.480;2022-10-03T17:47:33;14.80;99.90
14682;DHT22;7429;52.498;13.480;2022-10-03T17:50:51;14.80;99.90
14682;DHT22;7429;52.498;13.480;2022-10-03T17:53:59;14.70;99.90
14682;DHT22;7429;52.498;13.480;2022-10-03T17:57:10;14.70;99.90
14682;DHT22;7429;52.498;13.480;2022-10-03T18:00:21;14.60;99.90
14682;DHT22;7429;52.498;13.480;2022-10-03T18:03:28;14.60;99.90
14682;DHT22;7429;52.498;13.480;2022-10-03T18:06:53;14.60;99.90
14682;DHT22;7429;52.498;13.480;2022-10-03T18:09:58;14.60;99.90
14682;DHT22;7429;52.498;13.480;2022-10-03T18:13:15;14.50;99.90
14682;DHT22;7429;52.498;13.480;2022-10-03T18:16:32;14.50;99.90
14682;DHT22;7429;52.498;13.480;2022-10-03T18:19:55;14.50;99.90
14682;DHT22;7429;52.498;13.480;2022-10-03T18:23:10;14.50;99.90
14682;DHT22;7429;52.498;13.480;2022-10-03T18:26:40;14.50;99.90
14682;DHT22;7429;52.498;13.480;2022-10-03T18:29:48;14.50;99.90
14682;DHT22;7429;52.498;13.480;2022-10-03T18:32:54;14.50;99.90
14682;DHT22;7429;52.498;13.480;2022-10-03T18:36:06;14.40;99.90
14682;DHT22;7429;52.498;13.480;2022-10-03T18:39:15;14.40;99.90
14682;DHT22;7429;52.498;13.480;2022-10-03T18:42:21;14.40;99.90
14682;DHT22;7429;52.498;13.480;2022-10-03T18:45:30;14.40;99.90
14682;DHT22;7429;52.498;13.480;2022-10-03T18:48:42;14.40;99.90
14682;DHT22;7429;52.498;13.480;2022-10-03T18:52:14;14.30;99.90
14682;DHT22;7429;52.498;13.480;2022-10-03T18:55:25;14.30;99.90
14682;DHT22;7429;52.498;13.480;2022-10-03T18:58:32;14.20;99.90
14682;DHT22;7429;52.498;13.480;2022-10-03T19:01:43;14.20;99.90
14682;DHT22;7429;52.498;13.480;2022-10-03T19:04:56;14.20;99.90
14682;DHT22;7429;52.498;13.480;2022-10-03T19:08:08;14.20;99.90
14682;DHT22;7429;52.498;13.480;2022-10-03T19:11:18;14.20;99.90
14682;DHT22;7429;52.498;13.480;2022-10-03T19:14:29;14.10;99.90
14682;DHT22;7429;52.498;13.480;2022-10-03T19:17:39;14.10;99.90
14682;DHT22;7429;52.498;13.480;2022-10-03T19:20:53;14.10;99.90
14682;DHT22;7429;52.498;13.480;2022-10-03T19:24:00;14.10;99.90
14682;DHT22;7429;52.498;13.480;2022-10-03T19:27:12;14.10;99.90
14682;DHT22;7429;52.498;13.480;2022-10-03T19:30:19;14.10;99.90
14682;DHT22;7429;52.498;13.480;2022-10-03T19:33:25;14.20;99.90
14682;DHT22;7429;52.498;13.480;2022-10-03T19:36:34;14.10;99.90
14682;DHT22;7429;52.498;13.480;2022-10-03T19:39:38;14.10;99.90
14682;DHT22;7429;52.498;13.480;2022-10-03T19:42:46;14.10;99.90
14682;DHT22;7429;52.498;13.480;2022-10-03T19:45:59;14.00;99.90
14682;DHT22;7429;52.498;13.480;2022-10-03T19:49:24;14.00;99.90
14682;DHT22;7429;52.498;13.480;2022-10-03T19:52:34;14.00;99.90
14682;DHT22;7429;52.498;13.480;2022-10-03T19:55:43;14.00;99.90
14682;DHT22;7429;52.498;13.480;2022-10-03T19:58:58;14.00;99.90
14682;DHT22;7429;52.498;13.480;2022-10-03T20:02:04;14.00;99.90
14682;DHT22;7429;52.498;13.480;2022-10-03T20:05:09;14.00;99.90
14682;DHT22;7429;52.498;13.480;2022-10-03T20:08:23;14.00;99.90
14682;DHT22;7429;52.498;13.480;2022-10-03T20:11:35;14.00;99.90
14682;DHT22;7429;52.498;13.480;2022-10-03T20:14:42;14.00;99.90
14682;DHT22;7429;52.498;13.480;2022-10-03T20:17:46;14.00;99.90
14682;DHT22;7429;52.498;13.480;2022-10-03T20:20:53;14.00;99.90
14682;DHT22;7429;52.498;13.480;2022-10-03T20:23:59;14.00;99.90
14682;DHT22;7429;52.498;13.480;2022-10-03T20:27:13;14.00;99.90
14682;DHT22;7429;52.498;13.480;2022-10-03T20:30:25;14.00;99.90
14682;DHT22;7429;52.498;13.480;2022-10-03T20:33:34;14.00;99.90
14682;DHT22;7429;52.498;13.480;2022-10-03T20:36:40;14.00;99.90
14682;DHT22;7429;52.498;13.480;2022-10-03T20:39:48;14.00;99.90
14682;DHT22;7429;52.498;13.480;2022-10-03T20:43:02;14.00;99.90
14682;DHT22;7429;52.498;13.480;2022-10-03T20:46:21;14.00;99.90
14682;DHT22;7429;52.498;13.480;2022-10-03T20:49:30;14.00;99.90
14682;DHT22;7429;52.498;13.480;2022-10-03T20:52:34;14.00;99.90
14682;DHT22;7429;52.498;13.480;2022-10-03T20:55:45;14.00;99.90
14682;DHT22;7429;52.498;13.480;2022-10-03T20:58:52;13.90;99.90
14682;DHT22;7429;52.498;13.480;2022-10-03T21:01:59;13.90;99.90
14682;DHT22;7429;52.498;13.480;2022-10-03T21:05:13;13.90;99.90
14682;DHT22;7429;52.498;13.480;2022-10-03T21:08:22;13.90;99.90
14682;DHT22;7429;52.498;13.480;2022-10-03T21:11:29;13.90;99.90
14682;DHT22;7429;52.498;13.480;2022-10-03T21:14:34;13.90;99.90
14682;DHT22;7429;52.498;13.480;2022-10-03T21:17:37;13.90;99.90
14682;DHT22;7429;52.498;13.480;2022-10-03T21:20:44;13.90;99.90
14682;DHT22;7429;52.498;13.480;2022-10-03T21:23:52;13.90;99.90
14682;DHT22;7429;52.498;13.480;2022-10-03T21:27:04;13.80;99.90
14682;DHT22;7429;52.498;13.480;2022-10-03T21:30:14;13.90;99.90
14682;DHT22;7429;52.498;13.480;2022-10-03T21:33:24;13.90;99.90
14682;DHT22;7429;52.498;13.480;2022-10-03T21:36:49;13.80;99.90
14682;DHT22;7429;52.498;13.480;2022-10-03T21:40:04;13.80;99.90
14682;DHT22;7429;52.498;13.480;2022-10-03T21:43:23;13.80;99.90
14682;DHT22;7429;52.498;13.480;2022-10-03T21:46:37;13.80;99.90
14682;DHT22;7429;52.498;13.480;2022-10-03T21:49:47;13.80;99.90
14682;DHT22;7429;52.498;13.480;2022-10-03T21:53:06;13.80;99.90
14682;DHT22;7429;52.498;13.480;2022-10-03T21:56:39;13.80;99.90
14682;DHT22;7429;52.498;13.480;2022-10-03T22:00:00;13.70;99.90
14682;DHT22;7429;52.498;13.480;2022-10-03T22:03:17;13.80;99.90
14682;DHT22;7429;52.498;13.480;2022-10-03T22:06:25;13.80;99.90
14682;DHT22;7429;52.498;13.480;2022-10-03T22:09:29;13.80;99.90
14682;DHT22;7429;52.498;13.480;2022-10-03T22:12:40;13.70;99.90
14682;DHT22;7429;52.498;13.480;2022-10-03T22:15:48;13.70;99.90
14682;DHT22;7429;52.498;13.480;2022-10-03T22:19:10;13.70;99.90
14682;DHT22;7429;52.498;13.480;2022-10-03T22:22:29;13.70;99.90
14682;DHT22;7429;52.498;13.480;2022-10-03T22:25:55;13.70;99.90
14682;DHT22;7429;52.498;13.480;2022-10-03T22:29:09;13.70;99.90
14682;DHT22;7429;52.498;13.480;2022-10-03T22:32:28;13.70;99.90
14682;DHT22;7429;52.498;13.480;2022-10-03T22:35:46;13.70;99.90
14682;DHT22;7429;52.498;13.480;2022-10-03T22:38:51;13.70;99.90
14682;DHT22;7429;52.498;13.480;2022-10-03T22:41:56;13.70;99.90
14682;DHT22;7429;52.498;13.480;2022-10-03T22:45:02;13.70;99.90
14682;DHT22;7429;52.498;13.480;2022-10-03T22:48:12;13.70;99.90
14682;DHT22;7429;52.498;13.480;2022-10-03T22:51:20;13.70;99.90
14682;DHT22;7429;52.498;13.480;2022-10-03T22:54:31;13.70;99.90
14682;DHT22;7429;52.498;13.480;2022-10-03T22:57:38;13.70;99.90
14682;DHT22;7429;52.498;13.480;2022-10-03T23:00:44;13.70;99.90
14682;DHT22;7429;52.498;13.480;2022-10-03T23:03:50;13.70;99.90
14682;DHT22;7429;52.498;13.480;2022-10-03T23:10:45;13.70;99.90
14682;DHT22;7429;52.498;13.480;2022-10-03T23:13:50;13.70;99.90
14682;DHT22;7429;52.498;13.480;2022-10-03T23:17:00;13.70;99.90
14682;DHT22;7429;52.498;13.480;2022-10-03T23:20:17;13.70;99.90